Main page
Satellite images 15-day forecastsClimateMarine weather Cyclones Lightning AirportsFAQ Newsletter About
Weather : Europe Africa North America South America Asia Australia-Oceania Others
Languages Contact

Istanbul Atatürk, Turkey

latitude: 40-58N, longitude: 028-49E, elevation: 48 m


METAR: LTBA 200920Z 08004KT 360V140 9999 SCT040 22/12 Q1021 NOSIG
short-TAF: out of date (34897 hours)
long-TAF: LTBA 200440Z 2006/2112 02009KT 9999 SCT030 BECMG 2015/2018 CAVOK

Time: 12:56 (09:56 UTC)

Current weather observation

The report was made 36 minutes ago, at 09:20 UTC  
Wind 04 kt from the East, varying between North and Southeast
Temperature 22°C
Humidity 53%
Pressure 1021 hPa
Visibility 10 km or more
Scattered clouds at a height of 4000 ft

Change units

Forecast

The report was made 4 hours and 53 minutes ago, at 05:03 UTC  
Forecast valid from 20 at 06 UTC to 21 at 12 UTC
Wind 09 kt from the North/Northeast
Visibility 10 km or more
Scattered clouds at a height of 3000 ft
Becoming
from 20 at 15 UTC to 20 at 18 UTC
Visibility 10 km or more
no clouds below 1500 m and no cumulonimbus
The information on this site is subject to a disclaimer
Weather : Europe Africa North America South America Asia Australia-Oceania Others
Satellite images 15-day forecastsClimateMarine weather Cyclones Lightning AirportsFAQ Languages Contact Newsletter About